Aviation Digital Data Service (ADDS)

Output produced by TAFs form (0059 UTC 30 May 2016)
found at http://aviationweather.gov/adds/tafs/
 
KGJT 292335Z 3000/3024 17018G25KT P6SM VCSH SCT090 BKN200 
     FM300300 06007KT P6SM FEW090 SCT250 
     FM300600 11007KT P6SM SKC 
     FM301300 14006KT P6SM SKC 
     FM301800 31006KT P6SM FEW090 BKN200 
     FM302200 32009G15KT P6SM VCTS SCT090CB BKN250